createdAt,value
2022-08-26T00:00:19.984Z,21.53
2022-08-26T00:03:03.654Z,21.50
2022-08-26T00:05:32.034Z,21.47
2022-08-26T00:08:00.462Z,21.44
2022-08-26T00:10:29.118Z,21.42
2022-08-26T00:12:57.273Z,21.41
2022-08-26T00:15:26.061Z,21.40
2022-08-26T00:17:56.692Z,21.39
2022-08-26T00:20:28.298Z,21.36
2022-08-26T00:22:57.136Z,21.33
2022-08-26T00:25:26.486Z,21.31
2022-08-26T00:27:54.613Z,21.28
2022-08-26T00:30:26.986Z,21.24
2022-08-26T00:32:56.490Z,21.22
2022-08-26T00:35:26.404Z,21.66
2022-08-26T00:37:57.137Z,23.86
2022-08-26T00:40:36.883Z,24.91
2022-08-26T00:43:07.083Z,24.15
2022-08-26T00:45:56.751Z,23.43
2022-08-26T00:48:31.732Z,22.93
2022-08-26T00:51:07.057Z,22.62
2022-08-26T00:53:40.092Z,22.40
2022-08-26T00:56:22.863Z,22.22
2022-08-26T00:58:51.515Z,22.05
2022-08-26T01:01:19.723Z,21.92
2022-08-26T01:03:51.479Z,21.80
2022-08-26T01:06:20.314Z,21.69
2022-08-26T01:08:49.569Z,21.60
2022-08-26T01:11:18.152Z,21.50
2022-08-26T01:13:49.091Z,21.41
2022-08-26T01:16:17.427Z,21.32
2022-08-26T01:18:47.076Z,21.25
2022-08-26T01:21:29.452Z,21.18
2022-08-26T01:23:59.403Z,21.11
2022-08-26T01:26:36.594Z,21.04
2022-08-26T01:29:06.707Z,20.98
2022-08-26T01:31:42.679Z,20.93
2022-08-26T01:34:14.213Z,20.89
2022-08-26T01:36:46.910Z,20.85
2022-08-26T01:39:19.880Z,21.36
2022-08-26T01:41:53.504Z,23.45
2022-08-26T01:47:10.095Z,23.52
2022-08-26T01:49:38.634Z,22.88
2022-08-26T01:52:10.741Z,22.47
2022-08-26T01:54:41.282Z,22.18
2022-08-26T01:57:16.522Z,21.95
2022-08-26T01:59:44.900Z,21.78
2022-08-26T02:02:13.382Z,21.62
2022-08-26T02:04:49.164Z,21.49
2022-08-26T02:07:21.545Z,21.34
2022-08-26T02:09:49.781Z,21.22
2022-08-26T02:12:19.799Z,21.11
2022-08-26T02:14:55.755Z,21.01
2022-08-26T02:17:29.356Z,20.92
2022-08-26T02:19:58.965Z,20.85
2022-08-26T02:22:28.879Z,20.78
2022-08-26T02:25:10.057Z,20.73
2022-08-26T02:27:38.335Z,20.70
2022-08-26T02:30:17.312Z,20.67
2022-08-26T02:32:46.662Z,20.64
2022-08-26T02:35:20.674Z,20.61
2022-08-26T02:37:50.588Z,20.57
2022-08-26T02:40:22.422Z,20.53
2022-08-26T02:42:53.013Z,20.49
2022-08-26T02:45:26.887Z,20.46
2022-08-26T02:47:58.396Z,20.41
2022-08-26T02:50:27.949Z,20.38
2022-08-26T02:52:56.445Z,20.35
2022-08-26T02:55:24.686Z,20.30
2022-08-26T02:57:53.183Z,20.25
2022-08-26T03:00:22.202Z,20.69
2022-08-26T03:02:52.096Z,22.68
2022-08-26T03:05:24.047Z,23.66
2022-08-26T03:07:53.096Z,23.01
2022-08-26T03:10:22.760Z,22.34
2022-08-26T03:12:51.136Z,21.90
2022-08-26T03:15:20.745Z,21.59
2022-08-26T03:17:50.386Z,21.36
2022-08-26T03:20:19.141Z,21.18
2022-08-26T03:22:47.620Z,21.01
2022-08-26T03:25:17.710Z,20.87
2022-08-26T03:27:46.119Z,20.75
2022-08-26T03:30:34.363Z,20.65
2022-08-26T03:33:03.462Z,20.53
2022-08-26T03:35:34.118Z,20.44
2022-08-26T03:38:03.589Z,20.36
2022-08-26T03:40:34.087Z,20.29
2022-08-26T03:43:04.361Z,20.23
2022-08-26T03:45:32.753Z,20.17
2022-08-26T03:48:00.786Z,20.12
2022-08-26T03:50:31.259Z,20.50
2022-08-26T03:53:03.418Z,22.50
2022-08-26T03:55:33.428Z,23.74
2022-08-26T03:58:02.323Z,23.20
2022-08-26T04:00:31.282Z,22.47
2022-08-26T04:02:59.366Z,21.98
2022-08-26T04:05:27.908Z,21.66
2022-08-26T04:07:56.412Z,21.42
2022-08-26T04:10:28.637Z,21.22
2022-08-26T04:13:05.944Z,21.06
2022-08-26T04:15:34.510Z,20.91
2022-08-26T04:18:02.641Z,20.79
2022-08-26T04:20:32.256Z,20.68
2022-08-26T04:23:00.476Z,20.57
2022-08-26T04:25:28.813Z,20.46
2022-08-26T04:27:57.283Z,20.37
2022-08-26T04:30:25.662Z,20.29
2022-08-26T04:32:54.041Z,20.21
2022-08-26T04:35:25.633Z,20.12
2022-08-26T04:37:54.623Z,20.05
2022-08-26T04:40:24.104Z,20.00
2022-08-26T04:42:54.692Z,19.94
2022-08-26T04:45:24.742Z,20.31
2022-08-26T04:47:57.114Z,22.27
2022-08-26T04:50:26.601Z,23.52
2022-08-26T04:52:55.677Z,22.98
2022-08-26T04:55:39.584Z,22.28
2022-08-26T04:58:11.112Z,21.76
2022-08-26T05:00:39.427Z,21.46
2022-08-26T05:03:10.622Z,21.27
2022-08-26T05:05:41.467Z,21.11
2022-08-26T05:08:15.890Z,20.99
2022-08-26T05:10:51.230Z,20.88
2022-08-26T05:13:22.373Z,20.78
2022-08-26T05:15:51.657Z,20.71
2022-08-26T05:18:23.328Z,20.63
2022-08-26T05:20:54.892Z,20.57
2022-08-26T05:23:24.521Z,20.53
2022-08-26T05:25:58.958Z,20.87
2022-08-26T05:28:29.863Z,22.89
2022-08-26T05:30:58.059Z,24.13
2022-08-26T05:33:26.301Z,23.65
2022-08-26T05:35:55.197Z,22.92
2022-08-26T05:38:23.569Z,22.44
2022-08-26T05:40:53.894Z,22.12
2022-08-26T05:43:22.282Z,21.89
2022-08-26T05:45:51.037Z,21.69
2022-08-26T05:48:22.791Z,21.54
2022-08-26T05:50:53.758Z,21.41
2022-08-26T05:53:23.899Z,21.29
2022-08-26T05:55:56.870Z,21.20
2022-08-26T05:58:27.035Z,21.12
2022-08-26T06:00:58.154Z,21.05
2022-08-26T06:03:26.551Z,21.00
2022-08-26T06:05:55.397Z,20.95
2022-08-26T06:08:24.223Z,20.90
2022-08-26T06:10:59.937Z,20.87
2022-08-26T06:13:31.856Z,20.83
2022-08-26T06:16:03.372Z,20.81
2022-08-26T06:18:36.701Z,21.23
2022-08-26T06:21:16.081Z,23.22
2022-08-26T06:24:05.453Z,24.45
2022-08-26T06:26:35.475Z,23.79
2022-08-26T06:29:06.305Z,23.17
2022-08-26T06:31:36.324Z,22.77
2022-08-26T06:34:10.381Z,22.53
2022-08-26T06:36:43.844Z,22.36
2022-08-26T06:39:14.499Z,22.23
2022-08-26T06:41:45.067Z,22.14
2022-08-26T06:44:19.317Z,22.04
2022-08-26T06:46:50.419Z,21.96
2022-08-26T06:49:25.722Z,21.90
2022-08-26T06:52:00.019Z,21.84
2022-08-26T06:54:30.542Z,21.80
2022-08-26T06:57:18.889Z,21.77
2022-08-26T06:59:47.268Z,21.73
2022-08-26T07:02:19.774Z,21.72
2022-08-26T07:04:51.190Z,21.71
2022-08-26T07:07:21.979Z,21.70
2022-08-26T07:09:52.468Z,21.70
2022-08-26T07:12:21.348Z,21.70
2022-08-26T07:14:49.930Z,22.15
2022-08-26T07:17:19.231Z,24.14
2022-08-26T07:19:49.275Z,25.40
2022-08-26T07:22:18.978Z,24.94
2022-08-26T07:24:47.133Z,24.28
2022-08-26T07:27:17.513Z,23.85
2022-08-26T07:29:46.172Z,23.58
2022-08-26T07:32:15.961Z,23.40
2022-08-26T07:34:44.538Z,23.28
2022-08-26T07:37:12.660Z,23.19
2022-08-26T07:39:43.365Z,23.12
2022-08-26T07:42:15.102Z,23.05
2022-08-26T07:44:44.205Z,23.00
2022-08-26T07:47:24.589Z,22.96
2022-08-26T07:49:57.744Z,22.93
2022-08-26T07:52:29.554Z,22.91
2022-08-26T07:55:00.417Z,22.91
2022-08-26T07:57:29.412Z,22.90
2022-08-26T07:59:58.176Z,22.90
2022-08-26T08:02:28.694Z,22.90
2022-08-26T08:04:58.703Z,22.92
2022-08-26T08:07:44.620Z,22.94
2022-08-26T08:10:18.062Z,22.96
2022-08-26T08:12:48.075Z,22.99
2022-08-26T08:15:18.913Z,23.02
2022-08-26T08:17:48.036Z,23.06
2022-08-26T08:20:19.452Z,23.10
2022-08-26T08:22:48.352Z,23.14
2022-08-26T08:25:17.139Z,23.19
2022-08-26T08:27:46.567Z,23.24
2022-08-26T08:30:20.910Z,23.29
2022-08-26T08:32:52.553Z,23.36
2022-08-26T08:35:22.787Z,23.43
2022-08-26T08:37:54.952Z,23.51
2022-08-26T08:40:26.785Z,23.60
2022-08-26T08:43:04.275Z,23.70
2022-08-26T08:46:05.973Z,23.81
2022-08-26T08:48:37.230Z,23.91
2022-08-26T08:51:33.501Z,23.99
2022-08-26T08:54:02.918Z,24.10
2022-08-26T08:56:35.954Z,24.19
2022-08-26T08:59:20.473Z,24.27
2022-08-26T09:01:53.891Z,24.37
2022-08-26T09:04:40.820Z,24.47
2022-08-26T09:07:16.542Z,24.59
2022-08-26T09:09:59.343Z,24.72
2022-08-26T09:12:33.128Z,24.84
2022-08-26T09:15:45.539Z,24.98
2022-08-26T09:18:41.982Z,25.13
2022-08-26T09:21:17.885Z,25.26
2022-08-26T09:23:49.676Z,25.36
2022-08-26T09:26:26.008Z,25.48
2022-08-26T09:29:00.134Z,25.60
2022-08-26T09:31:30.126Z,25.72
2022-08-26T09:34:34.339Z,25.86
2022-08-26T09:37:04.661Z,26.02
2022-08-26T09:39:38.649Z,26.16
2022-08-26T09:42:25.582Z,26.31
2022-08-26T09:45:06.547Z,26.47
2022-08-26T09:47:57.842Z,26.64
2022-08-26T09:50:33.624Z,26.81
2022-08-26T09:53:13.128Z,26.96
2022-08-26T09:55:44.380Z,27.11
2022-08-26T09:58:31.025Z,27.26
2022-08-26T10:01:03.563Z,27.44
2022-08-26T10:03:36.345Z,27.61
2022-08-26T10:06:23.361Z,27.77
2022-08-26T10:09:08.757Z,27.93
2022-08-26T10:11:38.042Z,28.10
2022-08-26T10:14:19.116Z,28.23
2022-08-26T10:17:01.508Z,28.37
2022-08-26T10:19:55.621Z,28.51
2022-08-26T10:22:37.193Z,28.65
2022-08-26T10:25:09.334Z,28.78
2022-08-26T10:28:02.520Z,28.88
2022-08-26T10:30:51.588Z,29.01
2022-08-26T10:33:19.861Z,29.13
2022-08-26T10:36:03.703Z,29.23
2022-08-26T10:38:41.482Z,29.34
2022-08-26T10:41:22.811Z,29.44
2022-08-26T10:44:00.279Z,29.55
2022-08-26T10:46:41.021Z,29.66
2022-08-26T10:49:13.724Z,29.78
2022-08-26T10:51:58.078Z,29.90
2022-08-26T10:54:32.089Z,30.03
2022-08-26T10:57:25.775Z,30.14
2022-08-26T11:00:39.255Z,30.24
2022-08-26T11:04:00.679Z,30.31
2022-08-26T11:06:30.062Z,30.39
2022-08-26T11:09:01.298Z,30.46
2022-08-26T11:11:41.526Z,30.54
2022-08-26T11:14:28.746Z,30.61
2022-08-26T11:16:59.012Z,30.69
2022-08-26T11:19:45.633Z,30.76
2022-08-26T11:22:29.722Z,30.82
2022-08-26T11:24:57.894Z,30.88
2022-08-26T11:27:28.486Z,30.93
2022-08-26T11:30:18.568Z,30.98
2022-08-26T11:32:54.164Z,31.03
2022-08-26T11:35:24.011Z,31.07
2022-08-26T11:37:59.183Z,31.10
2022-08-26T11:40:29.266Z,31.14
2022-08-26T11:43:01.251Z,31.18
2022-08-26T11:45:45.534Z,31.23
2022-08-26T11:48:23.936Z,31.26
2022-08-26T11:51:13.842Z,31.29
2022-08-26T11:53:47.167Z,31.32
2022-08-26T11:56:32.637Z,31.33
2022-08-26T11:59:04.057Z,31.37
2022-08-26T12:01:39.152Z,31.40
2022-08-26T12:04:10.940Z,31.41
2022-08-26T12:06:49.356Z,31.44
2022-08-26T12:09:31.178Z,31.43
2022-08-26T12:12:19.209Z,31.42
2022-08-26T12:14:47.690Z,31.41
2022-08-26T12:17:26.057Z,31.41
2022-08-26T12:19:54.279Z,31.41
2022-08-26T12:22:28.219Z,31.41
2022-08-26T12:24:59.025Z,31.41
2022-08-26T12:27:40.103Z,31.41
2022-08-26T12:30:18.109Z,31.41
2022-08-26T12:32:58.006Z,31.40
2022-08-26T12:35:29.533Z,31.40
2022-08-26T12:37:58.608Z,31.37
2022-08-26T12:40:30.801Z,31.35
2022-08-26T12:43:02.327Z,31.35
2022-08-26T12:45:35.614Z,31.34
2022-08-26T12:48:24.531Z,31.33
2022-08-26T12:50:53.577Z,31.30
2022-08-26T12:53:25.437Z,31.26
2022-08-26T12:56:00.578Z,31.21
2022-08-26T12:58:31.922Z,31.16
2022-08-26T13:01:06.890Z,31.12
2022-08-26T13:03:35.440Z,31.08
2022-08-26T13:06:31.725Z,31.05
2022-08-26T13:09:31.793Z,31.00
2022-08-26T13:12:00.074Z,30.95
2022-08-26T13:14:31.520Z,30.92
2022-08-26T13:16:59.695Z,30.89
2022-08-26T13:19:29.915Z,30.85
2022-08-26T13:22:00.344Z,30.82
2022-08-26T13:24:33.849Z,30.79
2022-08-26T13:27:03.756Z,30.78
2022-08-26T13:29:32.033Z,30.76
2022-08-26T13:32:01.150Z,30.74
2022-08-26T13:34:30.896Z,30.73
2022-08-26T13:37:00.041Z,30.72
2022-08-26T13:39:28.826Z,30.71
2022-08-26T13:41:57.058Z,30.72
2022-08-26T13:44:25.275Z,30.73
2022-08-26T13:46:54.067Z,30.74
2022-08-26T13:49:22.928Z,30.74
2022-08-26T13:51:51.230Z,30.75
2022-08-26T13:54:19.509Z,30.76
2022-08-26T13:56:47.784Z,30.76
2022-08-26T13:59:16.060Z,30.76
2022-08-26T14:01:44.336Z,30.77
2022-08-26T14:04:12.717Z,30.77
2022-08-26T14:06:40.963Z,30.79
2022-08-26T14:09:09.164Z,30.80
2022-08-26T14:11:50.601Z,30.81
2022-08-26T14:14:23.435Z,30.81
2022-08-26T14:16:59.251Z,30.81
2022-08-26T14:19:30.477Z,30.82
2022-08-26T14:22:01.210Z,30.83
2022-08-26T14:24:30.197Z,30.83
2022-08-26T14:26:58.944Z,30.83
2022-08-26T14:29:27.325Z,30.85
2022-08-26T14:31:58.952Z,30.85
2022-08-26T14:34:27.259Z,30.86
2022-08-26T14:36:55.430Z,30.86
2022-08-26T14:39:24.424Z,30.88
2022-08-26T14:41:56.900Z,30.90
2022-08-26T14:44:29.681Z,30.91
2022-08-26T14:47:01.537Z,30.93
2022-08-26T14:49:31.879Z,30.94
2022-08-26T14:52:00.244Z,30.95
2022-08-26T14:54:29.749Z,30.97
2022-08-26T14:57:01.818Z,30.99
2022-08-26T14:59:35.724Z,31.03
2022-08-26T15:02:05.660Z,31.06
2022-08-26T15:04:34.631Z,31.11
2022-08-26T15:07:04.751Z,31.17
2022-08-26T15:09:35.705Z,31.22
2022-08-26T15:12:05.194Z,31.28
2022-08-26T15:14:33.676Z,31.32
2022-08-26T15:17:02.259Z,31.32
2022-08-26T15:19:30.535Z,31.29
2022-08-26T15:21:58.812Z,31.26
2022-08-26T15:24:29.108Z,31.21
2022-08-26T15:26:57.722Z,31.15
2022-08-26T15:29:26.099Z,31.08
2022-08-26T15:31:57.301Z,31.01
2022-08-26T15:34:28.284Z,30.94
2022-08-26T15:36:56.560Z,30.88
2022-08-26T15:39:24.837Z,30.86
2022-08-26T15:41:53.624Z,30.90
2022-08-26T15:44:22.947Z,30.91
2022-08-26T15:46:55.355Z,30.88
2022-08-26T15:49:27.159Z,30.84
2022-08-26T15:51:55.413Z,30.79
2022-08-26T15:54:24.820Z,30.74
2022-08-26T15:56:54.139Z,30.67
2022-08-26T15:59:22.958Z,30.62
2022-08-26T16:01:52.495Z,30.56
2022-08-26T16:04:21.116Z,30.51
2022-08-26T16:06:51.689Z,30.46
2022-08-26T16:09:27.296Z,30.41
2022-08-26T16:11:59.258Z,30.37
2022-08-26T16:14:27.944Z,30.34
2022-08-26T16:16:57.654Z,30.32
2022-08-26T16:19:26.135Z,30.28
2022-08-26T16:21:54.720Z,30.28
2022-08-26T16:24:28.379Z,30.34
2022-08-26T16:26:58.848Z,30.36
2022-08-26T16:29:28.150Z,30.32
2022-08-26T16:31:56.324Z,30.26
2022-08-26T16:34:24.901Z,30.18
2022-08-26T16:36:53.299Z,30.08
2022-08-26T16:39:21.561Z,29.99
2022-08-26T16:41:50.456Z,29.89
2022-08-26T16:44:19.244Z,29.80
2022-08-26T16:46:47.549Z,29.70
2022-08-26T16:49:16.000Z,29.61
2022-08-26T16:51:44.173Z,29.52
2022-08-26T16:54:12.449Z,29.43
2022-08-26T16:56:40.725Z,29.34
2022-08-26T16:59:11.797Z,29.24
2022-08-26T17:01:40.258Z,29.14
2022-08-26T17:04:08.938Z,29.04
2022-08-26T17:06:37.416Z,28.95
2022-08-26T17:09:05.693Z,28.83
2022-08-26T17:11:34.511Z,28.73
2022-08-26T17:14:03.245Z,28.62
2022-08-26T17:16:31.636Z,28.51
2022-08-26T17:19:01.050Z,28.39
2022-08-26T17:21:29.298Z,28.27
2022-08-26T17:23:57.910Z,28.18
2022-08-26T17:26:26.854Z,28.08
2022-08-26T17:28:55.581Z,27.98
2022-08-26T17:31:24.237Z,27.89
2022-08-26T17:33:53.660Z,27.80
2022-08-26T17:36:28.085Z,27.70
2022-08-26T17:38:58.312Z,27.60
2022-08-26T17:41:27.126Z,27.51
2022-08-26T17:43:55.484Z,27.41
2022-08-26T17:46:26.669Z,27.30
2022-08-26T17:48:55.003Z,27.21
2022-08-26T17:51:24.506Z,27.12
2022-08-26T17:53:53.169Z,27.03
2022-08-26T17:56:27.117Z,26.92
2022-08-26T17:58:58.144Z,26.82
2022-08-26T18:01:32.307Z,26.72
2022-08-26T18:04:01.165Z,26.63
2022-08-26T18:06:30.873Z,26.53
2022-08-26T18:09:00.104Z,26.43
2022-08-26T18:11:31.506Z,26.34
2022-08-26T18:14:00.116Z,26.26
2022-08-26T18:16:30.209Z,26.18
2022-08-26T18:18:58.690Z,26.09
2022-08-26T18:21:29.432Z,26.01
2022-08-26T18:23:57.704Z,25.92
2022-08-26T18:26:32.327Z,25.84
2022-08-26T18:29:01.076Z,25.76
2022-08-26T18:31:30.389Z,25.67
2022-08-26T18:34:00.944Z,25.59
2022-08-26T18:36:35.698Z,25.51
2022-08-26T18:39:06.405Z,25.43
2022-08-26T18:41:41.235Z,25.35
2022-08-26T18:44:13.477Z,25.28
2022-08-26T18:46:43.426Z,25.20
2022-08-26T18:49:13.744Z,25.13
2022-08-26T18:51:43.556Z,25.07
2022-08-26T18:54:11.999Z,25.01
2022-08-26T18:56:40.867Z,24.96
2022-08-26T18:59:10.396Z,24.89
2022-08-26T19:01:40.883Z,24.83
2022-08-26T19:04:14.120Z,24.77
2022-08-26T19:06:49.293Z,24.71
2022-08-26T19:09:19.107Z,24.65
2022-08-26T19:11:49.805Z,24.59
2022-08-26T19:14:20.268Z,24.54
2022-08-26T19:16:52.566Z,24.49
2022-08-26T19:19:24.207Z,24.45
2022-08-26T19:21:52.724Z,24.40
2022-08-26T19:24:21.891Z,24.37
2022-08-26T19:26:57.518Z,24.32
2022-08-26T19:29:29.997Z,24.26
2022-08-26T19:31:58.916Z,24.21
2022-08-26T19:34:27.068Z,24.16
2022-08-26T19:36:57.282Z,24.12
2022-08-26T19:39:26.628Z,24.09
2022-08-26T19:41:54.985Z,24.07
2022-08-26T19:44:41.999Z,24.05
2022-08-26T19:47:12.046Z,24.04
2022-08-26T19:49:40.189Z,24.03
2022-08-26T19:52:09.091Z,24.01
2022-08-26T19:54:37.671Z,23.97
2022-08-26T19:57:05.510Z,23.94
2022-08-26T19:59:33.683Z,23.91
2022-08-26T20:02:02.337Z,23.88
2022-08-26T20:04:31.935Z,23.84
2022-08-26T20:07:01.775Z,23.79
2022-08-26T20:09:31.346Z,23.74
2022-08-26T20:11:59.572Z,23.68
2022-08-26T20:14:28.898Z,23.63
2022-08-26T20:16:57.084Z,23.58
2022-08-26T20:19:44.215Z,23.54
2022-08-26T20:22:12.991Z,23.49
2022-08-26T20:24:49.938Z,23.46
2022-08-26T20:27:18.585Z,23.42
2022-08-26T20:29:46.797Z,23.39
2022-08-26T20:32:15.133Z,23.37
2022-08-26T20:34:43.431Z,23.35
2022-08-26T20:37:12.651Z,23.34
2022-08-26T20:39:41.768Z,23.33
2022-08-26T20:42:20.381Z,23.33
2022-08-26T20:44:54.397Z,23.31
2022-08-26T20:47:23.650Z,23.30
2022-08-26T20:49:52.697Z,23.29
2022-08-26T20:52:21.230Z,23.29
2022-08-26T20:54:49.428Z,23.29
2022-08-26T20:57:17.807Z,23.29
2022-08-26T20:59:45.980Z,23.29
2022-08-26T21:02:14.231Z,23.29
2022-08-26T21:04:42.512Z,23.30
2022-08-26T21:07:10.810Z,23.29
2022-08-26T21:09:39.087Z,23.29
2022-08-26T21:12:07.603Z,23.29
2022-08-26T21:14:35.842Z,23.27
2022-08-26T21:17:04.836Z,23.25
2022-08-26T21:19:33.010Z,23.22
2022-08-26T21:22:01.287Z,23.19
2022-08-26T21:24:29.562Z,23.17
2022-08-26T21:26:58.043Z,23.16
2022-08-26T21:29:26.300Z,23.13
2022-08-26T21:31:54.537Z,23.10
2022-08-26T21:34:22.889Z,23.07
2022-08-26T21:36:51.149Z,23.05
2022-08-26T21:39:19.425Z,23.02
2022-08-26T21:41:48.053Z,22.99
2022-08-26T21:44:17.830Z,22.95
2022-08-26T21:46:47.299Z,22.92
2022-08-26T21:49:16.296Z,22.90
2022-08-26T21:51:47.770Z,22.87
2022-08-26T21:54:16.802Z,22.85
2022-08-26T21:56:47.298Z,22.84
2022-08-26T21:59:18.031Z,22.81
2022-08-26T22:01:47.361Z,22.78
2022-08-26T22:04:16.530Z,22.75
2022-08-26T22:06:49.012Z,22.73
2022-08-26T22:09:20.451Z,22.71
2022-08-26T22:11:49.488Z,22.68
2022-08-26T22:14:21.203Z,22.65
2022-08-26T22:16:50.796Z,22.62
2022-08-26T22:19:23.600Z,22.60
2022-08-26T22:21:55.558Z,22.59
2022-08-26T22:24:26.287Z,22.57
2022-08-26T22:26:55.173Z,22.55
2022-08-26T22:29:25.372Z,22.52
2022-08-26T22:31:53.962Z,22.49
2022-08-26T22:34:23.592Z,22.46
2022-08-26T22:36:51.878Z,22.43
2022-08-26T22:39:23.628Z,22.41
2022-08-26T22:41:53.545Z,22.39
2022-08-26T22:44:22.462Z,22.35
2022-08-26T22:46:57.264Z,22.31
2022-08-26T22:49:25.538Z,22.27
2022-08-26T22:51:53.817Z,22.24
2022-08-26T22:54:22.092Z,22.22
2022-08-26T22:56:50.470Z,22.19
2022-08-26T22:59:18.952Z,22.17
2022-08-26T23:01:47.740Z,22.15
2022-08-26T23:04:16.016Z,22.11
2022-08-26T23:06:47.591Z,22.09
2022-08-26T23:09:18.815Z,22.07
2022-08-26T23:11:48.716Z,22.06
2022-08-26T23:14:18.965Z,22.05
2022-08-26T23:16:48.094Z,22.04
2022-08-26T23:19:19.296Z,22.02
2022-08-26T23:21:47.929Z,21.99
2022-08-26T23:24:17.586Z,21.97
2022-08-26T23:26:46.430Z,21.96
2022-08-26T23:29:15.880Z,21.94
2022-08-26T23:31:44.711Z,21.92
2022-08-26T23:34:32.504Z,21.88
2022-08-26T23:37:02.727Z,21.82
2022-08-26T23:39:35.595Z,21.77
2022-08-26T23:42:04.878Z,21.72
2022-08-26T23:44:33.392Z,21.67
2022-08-26T23:47:02.258Z,21.63
2022-08-26T23:49:30.765Z,21.60
2022-08-26T23:52:18.087Z,21.56
2022-08-26T23:54:49.031Z,21.51
2022-08-26T23:57:18.755Z,21.46
2022-08-26T23:59:48.743Z,21.42
